Time;durP1;ratioP1;P1;durP2;ratioP2;P2;SDS_P1;SDS_P2;PMS_P1;PMS_P2;Temp;Humidity;BMP_temperature;BMP_pressure;BME280_temperature;BME280_humidity;BME280_pressure;Samples;Min_cycle;Max_cycle;Signal;HPM_P1;HPM_P2
2022/03/13 00:00:19;;;;;;;15.10;10.63;;;4.10;84.40;;;;;;5028811;28;20197;-62
2022/03/13 00:02:45;;;;;;;12.50;9.05;;;4.00;84.80;;;;;;5031582;28;20259;-64
2022/03/13 00:05:14;;;;;;;14.13;8.20;;;4.00;85.10;;;;;;5032772;28;20229;-62
2022/03/13 00:07:41;;;;;;;13.13;8.88;;;3.90;84.90;;;;;;5033068;28;20421;-62
2022/03/13 00:10:07;;;;;;;9.43;7.88;;;3.90;85.30;;;;;;5032807;28;20166;-62
2022/03/13 00:12:34;;;;;;;13.63;9.60;;;3.80;85.00;;;;;;5032914;28;20352;-63
2022/03/13 00:15:03;;;;;;;10.95;8.73;;;3.80;85.00;;;;;;5013468;28;20215;-63
2022/03/13 00:17:29;;;;;;;13.05;7.65;;;3.80;85.30;;;;;;5013440;28;20289;-62
2022/03/13 00:19:59;;;;;;;10.60;9.30;;;3.70;85.60;;;;;;5013188;28;20237;-62
2022/03/13 00:22:26;;;;;;;13.77;9.75;;;3.60;86.30;;;;;;5013614;28;20198;-63
2022/03/13 00:24:51;;;;;;;19.38;9.57;;;3.50;86.60;;;;;;5013106;28;20571;-63
2022/03/13 00:27:17;;;;;;;13.63;7.23;;;3.50;86.70;;;;;;5013577;28;20254;-63
2022/03/13 00:29:42;;;;;;;10.70;6.03;;;3.50;87.40;;;;;;5013553;28;20209;-64
2022/03/13 00:32:09;;;;;;;13.63;7.23;;;3.40;87.40;;;;;;5013259;28;20241;-62
2022/03/13 00:34:35;;;;;;;14.85;8.63;;;3.40;87.50;;;;;;5012511;28;20198;-62
2022/03/13 00:37:00;;;;;;;12.80;7.47;;;3.30;87.80;;;;;;5012850;28;20672;-64
2022/03/13 00:39:27;;;;;;;14.97;8.57;;;3.30;88.20;;;;;;5012488;28;20175;-63
2022/03/13 00:41:53;;;;;;;9.73;7.97;;;3.20;88.30;;;;;;5013088;28;20179;-64
2022/03/13 00:44:19;;;;;;;16.27;10.10;;;3.20;88.60;;;;;;5012507;28;20708;-64
2022/03/13 00:46:45;;;;;;;8.30;6.82;;;3.10;88.80;;;;;;5011571;28;20732;-65
2022/03/13 00:49:11;;;;;;;10.53;7.43;;;3.00;88.90;;;;;;5028374;28;20182;-64
2022/03/13 00:51:39;;;;;;;18.23;8.50;;;3.00;88.80;;;;;;5032588;28;20408;-64
2022/03/13 00:54:05;;;;;;;10.73;9.50;;;2.90;88.80;;;;;;5032335;28;20269;-62
2022/03/13 00:56:31;;;;;;;9.55;6.97;;;2.90;89.30;;;;;;5032946;28;20553;-64
2022/03/13 00:58:58;;;;;;;14.00;7.93;;;2.90;90.00;;;;;;5026622;28;20171;-64
2022/03/13 01:01:23;;;;;;;11.00;7.15;;;2.90;90.00;;;;;;5012624;28;20202;-64
2022/03/13 01:03:53;;;;;;;8.37;7.33;;;2.80;90.10;;;;;;5034490;28;20260;-64
2022/03/13 01:06:20;;;;;;;10.90;7.55;;;2.80;90.50;;;;;;5036450;28;20197;-62
2022/03/13 01:08:47;;;;;;;12.65;7.70;;;2.70;90.80;;;;;;5036824;28;20594;-64
2022/03/13 01:11:18;;;;;;;20.77;8.90;;;2.70;90.90;;;;;;5036441;28;20166;-62
2022/03/13 01:13:45;;;;;;;9.95;6.00;;;2.70;91.00;;;;;;5029945;28;20186;-63
2022/03/13 01:16:19;;;;;;;15.50;8.80;;;2.60;91.20;;;;;;5016724;28;20226;-63
2022/03/13 01:18:46;;;;;;;10.63;8.60;;;2.50;91.60;;;;;;5016537;28;20170;-64
2022/03/13 01:21:13;;;;;;;11.40;6.10;;;2.50;91.90;;;;;;5016509;28;20229;-63
2022/03/13 01:23:40;;;;;;;9.43;6.78;;;2.50;92.00;;;;;;5014838;28;20203;-64
2022/03/13 01:26:38;;;;;;;15.10;7.45;;;2.40;92.00;;;;;;5016599;28;20214;-63
2022/03/13 01:29:11;;;;;;;9.48;6.78;;;2.40;91.80;;;;;;5015418;28;20194;-63
2022/03/13 01:31:44;;;;;;;10.25;6.35;;;2.40;91.80;;;;;;5016440;28;20199;-62
2022/03/13 01:34:11;;;;;;;7.22;6.22;;;2.40;91.80;;;;;;5015907;28;20228;-64
2022/03/13 01:36:38;;;;;;;7.93;7.15;;;2.40;91.90;;;;;;5016371;28;20209;-64
2022/03/13 01:39:06;;;;;;;9.23;6.03;;;2.40;92.00;;;;;;5016199;28;20171;-64
2022/03/13 01:41:34;;;;;;;9.32;6.38;;;2.30;92.10;;;;;;5016388;28;20171;-64
2022/03/13 01:44:00;;;;;;;9.57;7.03;;;2.30;92.10;;;;;;5026272;28;20220;-64
2022/03/13 01:46:26;;;;;;;5.95;5.35;;;2.30;92.20;;;;;;5035882;28;20170;-64
2022/03/13 01:48:54;;;;;;;11.40;7.22;;;2.30;92.20;;;;;;5036152;28;20205;-64
2022/03/13 01:51:20;;;;;;;8.90;6.45;;;2.30;92.20;;;;;;5035937;28;20170;-62
2022/03/13 01:53:46;;;;;;;9.80;6.53;;;2.20;92.10;;;;;;5035437;28;20235;-64
2022/03/13 01:56:11;;;;;;;7.53;6.93;;;2.20;92.40;;;;;;5035550;28;20205;-62
2022/03/13 01:58:37;;;;;;;11.10;6.67;;;2.20;92.60;;;;;;5024161;28;20175;-62
2022/03/13 02:01:03;;;;;;;8.03;4.67;;;2.10;92.60;;;;;;5016048;28;20174;-64
2022/03/13 02:03:29;;;;;;;7.22;5.75;;;2.20;92.50;;;;;;5015252;28;20659;-64
2022/03/13 02:05:55;;;;;;;13.73;7.70;;;2.20;92.50;;;;;;5015892;28;20190;-63
2022/03/13 02:08:22;;;;;;;9.77;5.47;;;2.10;92.20;;;;;;5015827;28;20181;-64
2022/03/13 02:10:48;;;;;;;8.35;5.45;;;2.10;92.30;;;;;;5015597;28;20529;-63
2022/03/13 02:13:17;;;;;;;10.95;6.18;;;2.20;92.30;;;;;;5024745;28;20181;-64
2022/03/13 02:15:42;;;;;;;8.10;5.82;;;2.10;92.20;;;;;;5034179;28;20186;-64
2022/03/13 02:18:08;;;;;;;14.23;4.40;;;2.10;92.20;;;;;;5033946;28;20576;-65
2022/03/13 02:20:40;;;;;;;7.95;7.03;;;2.10;92.00;;;;;;5035307;28;20166;-63
2022/03/13 02:23:22;;;;;;;9.63;5.97;;;2.10;91.80;;;;;;5034982;28;20166;-65
2022/03/13 02:25:59;;;;;;;9.43;3.65;;;2.00;91.60;;;;;;5035134;28;20190;-65
2022/03/13 02:28:31;;;;;;;5.78;4.90;;;2.10;91.00;;;;;;5024068;28;20175;-65
2022/03/13 02:31:03;;;;;;;4.53;4.10;;;2.10;90.70;;;;;;5015486;28;20184;-64
2022/03/13 02:33:29;;;;;;;5.72;3.95;;;2.10;90.50;;;;;;5015006;28;20630;-64
2022/03/13 02:36:01;;;;;;;8.07;6.90;;;2.10;90.40;;;;;;5015041;28;20187;-64
2022/03/13 02:38:28;;;;;;;4.82;4.28;;;2.10;90.40;;;;;;5015376;28;20174;-62
2022/03/13 02:40:55;;;;;;;3.92;3.55;;;2.00;90.20;;;;;;5015398;28;20175;-64
2022/03/13 02:43:21;;;;;;;7.50;5.18;;;2.00;90.30;;;;;;5026636;28;20182;-63
2022/03/13 02:45:47;;;;;;;10.10;6.22;;;1.90;90.20;;;;;;5034571;28;20186;-63
2022/03/13 02:48:13;;;;;;;8.48;5.45;;;1.90;90.10;;;;;;5034824;28;20178;-63
2022/03/13 02:50:39;;;;;;;6.50;4.67;;;2.00;90.20;;;;;;5030885;28;20182;-63
2022/03/13 02:53:06;;;;;;;5.10;3.30;;;1.90;90.30;;;;;;5014519;28;20507;-65
2022/03/13 02:55:32;;;;;;;10.77;3.75;;;1.90;90.10;;;;;;5014927;28;20191;-63
2022/03/13 02:57:59;;;;;;;8.77;4.72;;;1.90;90.00;;;;;;5014875;28;20181;-63
2022/03/13 03:00:42;;;;;;;9.48;7.15;;;1.90;89.70;;;;;;5014650;28;20689;-64
2022/03/13 03:03:08;;;;;;;6.93;5.40;;;1.90;90.00;;;;;;5028313;28;20197;-64
2022/03/13 03:05:35;;;;;;;11.00;5.07;;;1.90;90.20;;;;;;5033063;28;20267;-64
2022/03/13 03:08:00;;;;;;;9.40;6.47;;;1.90;90.20;;;;;;5034548;28;20193;-64
2022/03/13 03:10:26;;;;;;;7.13;6.27;;;1.80;90.30;;;;;;5034383;28;20640;-62
2022/03/13 03:12:51;;;;;;;9.53;5.83;;;1.80;90.40;;;;;;5034257;28;20201;-63
2022/03/13 03:15:21;;;;;;;6.97;4.80;;;1.80;90.70;;;;;;5033770;28;20220;-64
2022/03/13 03:17:47;;;;;;;7.47;6.78;;;1.70;90.90;;;;;;5020327;28;20182;-63
2022/03/13 03:20:13;;;;;;;6.93;6.22;;;1.70;91.20;;;;;;5014572;28;20178;-64
2022/03/13 03:22:40;;;;;;;6.30;5.70;;;1.60;91.50;;;;;;5014489;28;20171;-64
2022/03/13 03:25:06;;;;;;;8.35;7.55;;;1.50;91.80;;;;;;5013089;28;20289;-63
2022/03/13 03:27:32;;;;;;;5.45;4.75;;;1.50;92.10;;;;;;5014385;28;20169;-64
2022/03/13 03:30:00;;;;;;;6.20;4.43;;;1.50;92.10;;;;;;5014271;28;20179;-64
2022/03/13 03:32:26;;;;;;;8.52;4.93;;;1.50;92.10;;;;;;5027057;28;20182;-62
2022/03/13 03:34:52;;;;;;;6.90;5.13;;;1.40;92.20;;;;;;5033393;28;20517;-65
2022/03/13 03:37:18;;;;;;;6.00;4.00;;;1.40;92.40;;;;;;5033867;28;20401;-65
2022/03/13 03:39:43;;;;;;;6.33;5.63;;;1.40;92.00;;;;;;5033949;28;20569;-64
2022/03/13 03:42:09;;;;;;;4.83;4.33;;;1.40;91.90;;;;;;5033911;28;20177;-65
2022/03/13 03:44:34;;;;;;;7.70;5.10;;;1.40;91.90;;;;;;5033161;28;20281;-64
2022/03/13 03:47:00;;;;;;;8.07;4.23;;;1.40;91.90;;;;;;5021776;28;20659;-63
2022/03/13 03:49:26;;;;;;;12.07;4.60;;;1.40;92.00;;;;;;5015014;28;20702;-65
2022/03/13 03:51:52;;;;;;;8.73;3.67;;;1.30;92.00;;;;;;5014048;28;20920;-64
2022/03/13 03:54:18;;;;;;;4.82;4.20;;;1.30;92.10;;;;;;5013431;28;20190;-64
2022/03/13 03:56:44;;;;;;;8.27;5.57;;;1.30;92.10;;;;;;5013807;28;20175;-63
2022/03/13 03:59:10;;;;;;;5.57;4.18;;;1.30;92.50;;;;;;5013701;28;20192;-65
2022/03/13 04:01:38;;;;;;;7.50;4.63;;;1.20;92.10;;;;;;5024254;28;20185;-63
2022/03/13 04:04:05;;;;;;;5.00;4.50;;;1.20;92.30;;;;;;5032752;28;20198;-63
2022/03/13 04:06:33;;;;;;;5.38;4.82;;;1.10;92.50;;;;;;5033366;28;20169;-64
2022/03/13 04:08:59;;;;;;;6.20;4.30;;;1.10;92.90;;;;;;5031171;28;20193;-62
2022/03/13 04:11:25;;;;;;;12.07;6.15;;;1.10;93.20;;;;;;5033454;28;20642;-65
2022/03/13 04:13:51;;;;;;;4.83;4.30;;;1.10;93.30;;;;;;5031816;28;20182;-63
2022/03/13 04:16:16;;;;;;;3.60;3.40;;;1.10;93.20;;;;;;5033370;28;20255;-62
2022/03/13 04:18:42;;;;;;;5.63;4.40;;;1.20;93.20;;;;;;5030028;28;20175;-64
2022/03/13 04:21:08;;;;;;;3.83;3.50;;;1.20;92.90;;;;;;5013944;28;20206;-62
2022/03/13 04:23:35;;;;;;;6.87;6.27;;;1.20;92.70;;;;;;5011813;28;20225;-64
2022/03/13 04:26:01;;;;;;;6.22;4.88;;;1.20;92.70;;;;;;5013247;28;20191;-63
2022/03/13 04:28:27;;;;;;;5.40;4.90;;;1.20;92.60;;;;;;5013616;28;20169;-64
2022/03/13 04:30:57;;;;;;;19.27;4.13;;;1.20;93.00;;;;;;5013480;28;20197;-64
2022/03/13 04:33:27;;;;;;;7.38;4.70;;;1.10;92.60;;;;;;5015410;28;20198;-63
2022/03/13 04:35:55;;;;;;;6.72;4.78;;;1.10;92.90;;;;;;5033687;28;20581;-62
2022/03/13 04:38:22;;;;;;;4.72;4.20;;;1.00;92.90;;;;;;5037291;28;20201;-62
2022/03/13 04:40:51;;;;;;;6.55;3.67;;;1.00;93.00;;;;;;5037245;28;20224;-64
2022/03/13 04:43:17;;;;;;;8.57;4.88;;;1.00;93.00;;;;;;5036550;28;20169;-64
2022/03/13 04:45:43;;;;;;;4.33;3.93;;;1.00;92.90;;;;;;5035491;28;20200;-64
2022/03/13 04:48:08;;;;;;;9.13;5.30;;;1.00;92.70;;;;;;5037174;28;20209;-63
2022/03/13 04:50:34;;;;;;;6.87;4.23;;;1.00;92.70;;;;;;5037083;28;20431;-63
2022/03/13 04:53:00;;;;;;;6.40;4.80;;;0.90;92.70;;;;;;5036802;28;20176;-63
2022/03/13 04:55:25;;;;;;;5.30;4.80;;;0.90;92.80;;;;;;5036464;28;20210;-63
2022/03/13 04:57:51;;;;;;;3.37;3.07;;;0.90;92.90;;;;;;5037085;28;20166;-63
2022/03/13 05:00:17;;;;;;;5.27;4.77;;;0.90;92.90;;;;;;5018905;28;20168;-62
2022/03/13 05:02:43;;;;;;;7.03;5.97;;;0.80;93.00;;;;;;5017167;28;20835;-65
2022/03/13 05:05:09;;;;;;;4.97;4.37;;;0.80;93.00;;;;;;5016768;28;20199;-62
2022/03/13 05:07:38;;;;;;;5.33;4.83;;;0.80;93.20;;;;;;5017370;28;20184;-63
2022/03/13 05:10:05;;;;;;;12.43;5.50;;;0.80;92.60;;;;;;5017254;28;20467;-64
2022/03/13 05:12:30;;;;;;;4.22;4.03;;;0.80;92.50;;;;;;5017194;28;20171;-64
2022/03/13 05:14:56;;;;;;;6.53;4.63;;;0.80;92.50;;;;;;5017551;28;20261;-64
2022/03/13 05:17:22;;;;;;;4.50;3.77;;;0.80;92.50;;;;;;5016989;28;20406;-64
2022/03/13 05:19:48;;;;;;;5.75;5.15;;;0.90;92.70;;;;;;5017083;28;20178;-63
2022/03/13 05:22:14;;;;;;;4.63;2.50;;;0.90;92.70;;;;;;5017219;28;20652;-62
2022/03/13 05:24:39;;;;;;;10.20;3.70;;;0.90;92.70;;;;;;5017099;28;20202;-63
2022/03/13 05:27:05;;;;;;;3.60;3.40;;;0.80;92.70;;;;;;5017304;28;20421;-62
2022/03/13 05:29:31;;;;;;;9.10;6.30;;;0.80;92.70;;;;;;5017122;28;20712;-63
2022/03/13 05:31:56;;;;;;;5.63;4.70;;;0.80;92.90;;;;;;5025589;28;20189;-64
2022/03/13 05:34:22;;;;;;;4.10;3.80;;;0.80;93.10;;;;;;5036228;28;20652;-64
2022/03/13 05:36:47;;;;;;;4.30;4.00;;;0.80;93.20;;;;;;5036724;28;20184;-63
2022/03/13 05:39:14;;;;;;;7.90;4.30;;;0.70;93.30;;;;;;5036090;28;20202;-63
2022/03/13 05:41:40;;;;;;;3.80;2.60;;;0.70;93.40;;;;;;5036033;28;20174;-65
2022/03/13 05:44:10;;;;;;;6.93;4.53;;;0.70;93.60;;;;;;5020117;28;20202;-63
2022/03/13 05:46:36;;;;;;;4.03;3.25;;;0.70;93.60;;;;;;5040534;28;20177;-63
2022/03/13 05:49:03;;;;;;;4.97;4.45;;;0.70;93.60;;;;;;5042930;28;20169;-62
2022/03/13 05:51:35;;;;;;;3.47;3.22;;;0.70;93.60;;;;;;5043929;28;20671;-61
2022/03/13 05:54:00;;;;;;;8.38;4.40;;;0.70;93.50;;;;;;5044264;28;20257;-62
2022/03/13 05:56:26;;;;;;;3.60;3.40;;;0.70;93.30;;;;;;5043306;28;20688;-65
2022/03/13 05:58:52;;;;;;;7.47;4.27;;;0.80;93.20;;;;;;5044099;28;20176;-63
2022/03/13 06:01:17;;;;;;;2.70;2.50;;;0.90;92.90;;;;;;5044069;28;20178;-64
2022/03/13 06:03:43;;;;;;;4.47;3.93;;;1.00;92.70;;;;;;5042638;28;20292;-62
2022/03/13 06:06:10;;;;;;;7.77;6.20;;;1.10;92.80;;;;;;5044693;28;20182;-62
2022/03/13 06:08:36;;;;;;;10.93;6.20;;;1.20;92.50;;;;;;5042484;28;20179;-63
2022/03/13 06:11:02;;;;;;;5.40;4.53;;;1.40;92.30;;;;;;5043249;28;20616;-63
2022/03/13 06:13:28;;;;;;;4.33;3.93;;;1.50;92.20;;;;;;5041393;28;20166;-64
2022/03/13 06:15:54;;;;;;;5.45;4.95;;;1.70;91.60;;;;;;5044111;28;20491;-64
2022/03/13 06:18:20;;;;;;;5.77;3.80;;;1.80;90.90;;;;;;5044107;28;20277;-63
2022/03/13 06:20:46;;;;;;;4.22;3.92;;;2.00;90.40;;;;;;5042496;28;21251;-65
2022/03/13 06:23:13;;;;;;;8.57;5.32;;;2.10;90.00;;;;;;5043979;28;20170;-62
2022/03/13 06:25:40;;;;;;;5.07;4.03;;;2.30;89.70;;;;;;5043752;28;20205;-64
2022/03/13 06:28:05;;;;;;;4.43;3.75;;;2.60;87.90;;;;;;5041791;28;20177;-62
2022/03/13 06:30:31;;;;;;;4.57;3.30;;;2.80;86.60;;;;;;5044465;28;20176;-64
2022/03/13 06:32:57;;;;;;;4.87;3.23;;;3.20;85.10;;;;;;5043392;28;20529;-62
2022/03/13 06:35:24;;;;;;;3.80;3.50;;;3.70;83.30;;;;;;5042554;28;20413;-63
2022/03/13 06:37:54;;;;;;;4.65;4.25;;;4.10;81.00;;;;;;5039692;28;20170;-63
2022/03/13 06:40:21;;;;;;;6.43;4.57;;;4.60;78.90;;;;;;5043204;28;20175;-64
2022/03/13 06:42:48;;;;;;;4.70;4.05;;;5.10;77.90;;;;;;5042475;28;20968;-65
2022/03/13 06:45:14;;;;;;;7.00;4.25;;;5.60;75.80;;;;;;5043487;28;20673;-64
2022/03/13 06:47:41;;;;;;;10.60;6.20;;;6.10;73.90;;;;;;5039345;28;20166;-64
2022/03/13 06:50:08;;;;;;;6.03;5.55;;;6.50;71.60;;;;;;5035277;28;20184;-66
2022/03/13 06:52:34;;;;;;;9.13;4.97;;;6.80;69.10;;;;;;5043943;28;20196;-64
2022/03/13 06:55:00;;;;;;;5.90;5.05;;;7.10;68.20;;;;;;5043090;28;20201;-64
2022/03/13 06:57:26;;;;;;;6.45;5.03;;;7.30;66.60;;;;;;5042044;28;20177;-65
2022/03/13 06:59:52;;;;;;;5.43;4.93;;;7.40;65.30;;;;;;5043916;28;20171;-62
2022/03/13 07:02:17;;;;;;;8.70;4.87;;;7.60;65.30;;;;;;5041990;28;20181;-64
2022/03/13 07:04:43;;;;;;;5.60;4.83;;;7.80;63.80;;;;;;5046667;28;20205;-63
2022/03/13 07:07:09;;;;;;;5.60;4.40;;;8.00;62.90;;;;;;5053894;28;20197;-63
2022/03/13 07:09:34;;;;;;;6.67;5.10;;;8.10;61.50;;;;;;5050655;28;20170;-61
2022/03/13 07:12:01;;;;;;;5.10;4.20;;;8.20;60.80;;;;;;5034330;28;20404;-62
2022/03/13 07:14:26;;;;;;;4.00;3.63;;;8.40;60.40;;;;;;5053653;28;20220;-63
2022/03/13 07:16:52;;;;;;;4.47;4.17;;;8.60;59.90;;;;;;5043641;28;20229;-63
2022/03/13 07:19:18;;;;;;;4.00;3.60;;;8.90;59.00;;;;;;5034135;28;20542;-64
2022/03/13 07:21:44;;;;;;;5.17;4.63;;;9.10;58.40;;;;;;5034208;28;20201;-62
2022/03/13 07:24:10;;;;;;;14.03;5.00;;;9.30;58.40;;;;;;5033497;28;20932;-62
2022/03/13 07:26:36;;;;;;;5.82;5.15;;;9.70;58.30;;;;;;5033755;28;20416;-62
2022/03/13 07:29:02;;;;;;;6.90;5.13;;;10.10;56.40;;;;;;5033759;28;20168;-64
2022/03/13 07:31:29;;;;;;;6.50;4.63;;;10.60;55.90;;;;;;5035711;28;20832;-64
2022/03/13 07:33:55;;;;;;;5.13;4.63;;;11.10;55.10;;;;;;5038897;28;20503;-64
2022/03/13 07:36:21;;;;;;;6.20;4.60;;;11.70;54.70;;;;;;5042296;28;20518;-62
2022/03/13 07:38:46;;;;;;;5.80;5.23;;;12.40;53.40;;;;;;5042606;28;20182;-66
2022/03/13 07:41:12;;;;;;;6.03;5.30;;;13.10;52.30;;;;;;5039921;28;20170;-64
2022/03/13 07:43:38;;;;;;;5.10;4.60;;;13.60;50.80;;;;;;5042127;28;20663;-64
2022/03/13 07:46:03;;;;;;;6.03;5.30;;;14.00;51.20;;;;;;5037364;28;20198;-63
2022/03/13 07:48:29;;;;;;;6.17;4.30;;;14.60;49.70;;;;;;5021482;28;20175;-63
2022/03/13 07:50:57;;;;;;;5.77;5.13;;;15.00;49.30;;;;;;5052391;28;20173;-64
2022/03/13 07:53:26;;;;;;;5.90;5.40;;;15.50;48.70;;;;;;5050592;28;20859;-63
2022/03/13 07:55:52;;;;;;;6.93;4.77;;;15.60;47.00;;;;;;5012900;28;20452;-65
2022/03/13 07:58:18;;;;;;;5.10;4.40;;;16.00;46.70;;;;;;5012636;28;20417;-66
2022/03/13 08:00:44;;;;;;;5.63;5.13;;;16.40;46.80;;;;;;5012618;28;20388;-65
2022/03/13 08:03:11;;;;;;;6.27;5.60;;;16.70;45.60;;;;;;5012496;28;20643;-63
2022/03/13 08:05:37;;;;;;;6.07;4.83;;;16.70;45.10;;;;;;5012777;28;20214;-63
2022/03/13 08:08:03;;;;;;;5.63;4.57;;;16.70;45.50;;;;;;5012559;28;20425;-64
2022/03/13 08:10:29;;;;;;;5.17;4.67;;;17.20;44.90;;;;;;5031660;28;20418;-66
2022/03/13 08:12:55;;;;;;;6.13;5.60;;;17.40;43.70;;;;;;5031948;28;20174;-65
2022/03/13 08:15:21;;;;;;;4.93;4.43;;;17.70;43.60;;;;;;5030537;28;20213;-65
2022/03/13 08:17:47;;;;;;;4.97;4.57;;;18.10;43.60;;;;;;5036389;28;20178;-65
2022/03/13 08:20:13;;;;;;;5.50;4.80;;;18.10;42.50;;;;;;5042178;28;20502;-67
2022/03/13 08:22:39;;;;;;;5.20;4.60;;;18.40;43.20;;;;;;5044813;28;20417;-65
2022/03/13 08:25:06;;;;;;;4.83;4.43;;;19.00;43.20;;;;;;5032451;28;20514;-65
2022/03/13 08:27:33;;;;;;;5.80;5.30;;;19.80;41.50;;;;;;5037284;28;20170;-65
2022/03/13 08:29:59;;;;;;;6.17;5.67;;;20.40;40.90;;;;;;5033457;28;20838;-65
2022/03/13 08:32:25;;;;;;;5.90;5.40;;;21.00;40.30;;;;;;5032896;28;20397;-63
2022/03/13 08:34:52;;;;;;;6.33;5.70;;;20.30;39.20;;;;;;5046081;28;20239;-64
2022/03/13 08:37:18;;;;;;;5.80;5.30;;;20.20;39.50;;;;;;5052541;28;20388;-65
2022/03/13 08:39:44;;;;;;;7.20;5.87;;;20.50;39.60;;;;;;5032611;28;20432;-64
2022/03/13 08:42:12;;;;;;;6.20;5.50;;;21.00;39.40;;;;;;5036905;28;20500;-66
2022/03/13 08:44:38;;;;;;;6.73;6.10;;;21.20;38.90;;;;;;5040067;28;20541;-64
2022/03/13 08:47:04;;;;;;;5.97;5.40;;;21.20;39.10;;;;;;5042192;28;20394;-66
2022/03/13 08:49:30;;;;;;;5.90;5.33;;;21.30;39.50;;;;;;5031693;28;20210;-65
2022/03/13 08:51:56;;;;;;;8.80;7.80;;;21.70;39.10;;;;;;5026354;28;20450;-64
2022/03/13 08:54:21;;;;;;;7.07;6.37;;;22.00;38.80;;;;;;5032235;28;20199;-65
2022/03/13 08:56:48;;;;;;;7.00;6.30;;;22.00;38.80;;;;;;5032612;28;20816;-65
2022/03/13 08:59:24;;;;;;;7.70;6.53;;;22.30;38.80;;;;;;5032800;28;20174;-65
2022/03/13 09:01:50;;;;;;;6.10;5.60;;;22.00;38.40;;;;;;5035957;28;20434;-66
2022/03/13 09:04:16;;;;;;;6.30;5.80;;;22.00;38.40;;;;;;5038911;28;20488;-64
2022/03/13 09:06:43;;;;;;;6.70;6.00;;;22.00;38.50;;;;;;5046587;28;20394;-63
2022/03/13 09:09:10;;;;;;;6.83;6.10;;;22.30;38.20;;;;;;5051542;28;20178;-65
2022/03/13 09:11:36;;;;;;;8.13;7.27;;;22.50;38.20;;;;;;5049620;28;20886;-64
2022/03/13 09:14:03;;;;;;;8.17;7.20;;;22.80;37.90;;;;;;5051010;28;20411;-65
2022/03/13 09:16:31;;;;;;;7.23;6.43;;;23.30;37.90;;;;;;5051023;28;20401;-66
2022/03/13 09:18:56;;;;;;;10.33;7.50;;;23.50;37.40;;;;;;5037311;28;20480;-67
2022/03/13 09:21:23;;;;;;;7.83;6.93;;;23.70;37.60;;;;;;5032147;28;20492;-66
2022/03/13 09:23:49;;;;;;;8.23;7.43;;;24.00;37.60;;;;;;5033567;28;20626;-66
2022/03/13 09:26:15;;;;;;;8.40;7.60;;;24.30;37.20;;;;;;5035734;28;20460;-66
2022/03/13 09:28:40;;;;;;;8.87;7.60;;;24.70;36.90;;;;;;5035966;28;20253;-65
2022/03/13 09:31:06;;;;;;;7.90;7.10;;;25.10;36.80;;;;;;5033781;28;20220;-66
2022/03/13 09:33:32;;;;;;;7.23;6.50;;;25.50;36.50;;;;;;5024728;28;20179;-64
2022/03/13 09:35:58;;;;;;;8.63;7.83;;;25.90;35.90;;;;;;5012710;28;20405;-64
2022/03/13 09:38:23;;;;;;;7.60;6.87;;;26.30;35.50;;;;;;5013780;28;20171;-67
2022/03/13 09:40:49;;;;;;;8.00;7.30;;;26.20;35.20;;;;;;5029735;28;20876;-64
2022/03/13 09:43:15;;;;;;;8.37;7.00;;;26.10;35.00;;;;;;5033407;28;20170;-65
2022/03/13 09:45:40;;;;;;;7.33;6.60;;;26.10;35.20;;;;;;5034760;28;20213;-66
2022/03/13 09:48:08;;;;;;;8.50;7.70;;;26.20;35.20;;;;;;5034172;28;20236;-66
2022/03/13 09:50:34;;;;;;;7.97;7.23;;;26.20;34.50;;;;;;5034147;28;20170;-65
2022/03/13 09:53:00;;;;;;;10.50;8.40;;;26.00;35.60;;;;;;5033558;28;20424;-67
2022/03/13 09:55:26;;;;;;;7.63;6.90;;;25.50;35.20;;;;;;5032677;28;20259;-66
2022/03/13 09:57:52;;;;;;;7.43;6.73;;;25.20;35.40;;;;;;5022963;28;20205;-66
2022/03/13 10:00:21;;;;;;;8.93;8.03;;;25.00;35.50;;;;;;5015547;28;20445;-65
2022/03/13 10:02:47;;;;;;;7.73;6.97;;;24.90;35.70;;;;;;5013655;28;20633;-67
2022/03/13 10:05:15;;;;;;;7.27;6.57;;;24.60;35.50;;;;;;5015015;28;20461;-67
2022/03/13 10:08:00;;;;;;;8.40;7.40;;;24.20;36.60;;;;;;5025542;28;20440;-67
2022/03/13 10:10:47;;;;;;;11.30;8.43;;;24.40;36.10;;;;;;5020068;28;20764;-64
2022/03/13 10:13:32;;;;;;;8.77;7.77;;;24.50;36.40;;;;;;5048604;28;20416;-62
2022/03/13 10:15:58;;;;;;;9.00;8.20;;;24.00;37.00;;;;;;5054598;28;20791;-66
2022/03/13 10:18:25;;;;;;;9.60;8.37;;;24.00;36.60;;;;;;5039622;28;20388;-63
2022/03/13 10:20:52;;;;;;;8.57;7.77;;;23.70;36.70;;;;;;5035054;28;20174;-64
2022/03/13 10:23:22;;;;;;;12.63;9.60;;;23.50;37.10;;;;;;5031124;28;20460;-64
2022/03/13 10:25:52;;;;;;;8.20;7.33;;;23.40;37.50;;;;;;5015014;28;20461;-65
2022/03/13 10:28:26;;;;;;;8.00;7.20;;;23.90;36.80;;;;;;5014645;28;20404;-65
2022/03/13 10:31:00;;;;;;;8.70;7.53;;;24.40;36.40;;;;;;5017815;28;20403;-64
2022/03/13 10:33:27;;;;;;;9.37;7.50;;;24.50;37.80;;;;;;5032748;28;20414;-64
2022/03/13 10:36:21;;;;;;;9.40;8.27;;;24.50;37.50;;;;;;5034713;28;20464;-62
2022/03/13 10:38:49;;;;;;;9.00;8.10;;;23.80;37.40;;;;;;5026344;28;20749;-64
2022/03/13 10:41:15;;;;;;;10.50;8.40;;;23.20;37.40;;;;;;5023996;28;20491;-63
2022/03/13 10:43:57;;;;;;;9.37;7.47;;;23.30;37.70;;;;;;5034337;28;20413;-63
2022/03/13 10:46:31;;;;;;;10.17;8.07;;;23.40;37.40;;;;;;5033945;28;20413;-63
2022/03/13 10:48:59;;;;;;;11.90;8.63;;;23.50;37.80;;;;;;5034377;28;20388;-64
2022/03/13 10:51:45;;;;;;;12.73;8.23;;;23.40;38.80;;;;;;5034622;28;20801;-64
2022/03/13 10:54:32;;;;;;;11.37;9.10;;;23.30;37.80;;;;;;5019273;28;20406;-65
2022/03/13 10:57:06;;;;;;;10.67;9.07;;;22.90;37.90;;;;;;5013560;28;20403;-64
2022/03/13 10:59:32;;;;;;;10.90;8.70;;;22.10;38.40;;;;;;5014751;28;20413;-65
2022/03/13 11:02:16;;;;;;;10.87;8.77;;;21.70;39.30;;;;;;5014153;28;20395;-66
2022/03/13 11:04:46;;;;;;;11.57;8.33;;;21.70;38.90;;;;;;5012120;28;20221;-64
2022/03/13 11:07:12;;;;;;;11.30;8.67;;;21.70;39.10;;;;;;5012757;28;20385;-64
2022/03/13 11:09:38;;;;;;;15.37;8.40;;;21.40;39.60;;;;;;5032069;28;20916;-64
2022/03/13 11:12:06;;;;;;;11.53;8.70;;;21.30;41.20;;;;;;5032002;28;20383;-65
2022/03/13 11:14:33;;;;;;;14.10;8.97;;;21.30;40.70;;;;;;5030459;28;20554;-65
2022/03/13 11:16:59;;;;;;;10.80;9.37;;;21.60;40.10;;;;;;5032041;28;20838;-66
2022/03/13 11:19:24;;;;;;;19.13;9.50;;;21.30;40.60;;;;;;5034069;28;20482;-65
2022/03/13 11:21:50;;;;;;;12.57;8.53;;;21.20;40.70;;;;;;5033647;28;20226;-66
2022/03/13 11:24:16;;;;;;;12.17;10.20;;;21.00;40.60;;;;;;5013678;28;20194;-65
2022/03/13 11:26:42;;;;;;;12.87;9.03;;;20.40;41.40;;;;;;5013907;28;20163;-64
2022/03/13 11:29:09;;;;;;;12.27;8.77;;;19.70;41.90;;;;;;5014120;28;20369;-63
2022/03/13 11:31:37;;;;;;;10.53;9.40;;;19.20;42.00;;;;;;5013911;28;20382;-64
2022/03/13 11:34:18;;;;;;;13.80;8.53;;;18.80;42.40;;;;;;5013629;28;20453;-64
2022/03/13 11:36:45;;;;;;;9.63;8.53;;;18.30;43.10;;;;;;5013175;28;20400;-65
2022/03/13 11:39:15;;;;;;;13.03;9.03;;;17.80;43.60;;;;;;5033701;28;20416;-65
2022/03/13 11:41:46;;;;;;;12.80;9.17;;;17.50;44.60;;;;;;5033408;28;20511;-64
2022/03/13 11:44:17;;;;;;;11.73;9.13;;;17.20;44.80;;;;;;5033175;28;20807;-63
2022/03/13 11:46:48;;;;;;;12.70;8.37;;;17.10;44.70;;;;;;5033247;28;20434;-64
2022/03/13 11:49:34;;;;;;;12.60;9.63;;;16.90;45.40;;;;;;5033575;28;20429;-64
2022/03/13 11:52:12;;;;;;;13.37;9.00;;;16.80;46.40;;;;;;5028106;28;20408;-64
2022/03/13 11:54:46;;;;;;;18.70;9.00;;;16.70;47.40;;;;;;5013270;28;20735;-64
2022/03/13 11:57:17;;;;;;;14.50;9.80;;;16.70;47.10;;;;;;5013630;28;20408;-64
2022/03/13 11:59:51;;;;;;;13.40;8.33;;;16.60;47.00;;;;;;5020367;28;20409;-64
2022/03/13 12:02:42;;;;;;;12.90;9.57;;;16.60;46.30;;;;;;5017356;28;20441;-64
2022/03/13 12:05:25;;;;;;;12.17;8.27;;;16.60;47.10;;;;;;5013094;28;20467;-64
2022/03/13 12:08:06;;;;;;;11.77;8.57;;;16.60;46.20;;;;;;5013811;28;20458;-65
2022/03/13 12:10:42;;;;;;;11.77;7.83;;;16.50;46.10;;;;;;5013577;28;20487;-63
2022/03/13 12:13:20;;;;;;;12.47;9.97;;;16.50;46.60;;;;;;5013376;28;20423;-65
2022/03/13 12:15:47;;;;;;;11.83;8.13;;;16.30;47.10;;;;;;5013404;28;20444;-66
2022/03/13 12:18:18;;;;;;;11.97;7.87;;;16.20;47.00;;;;;;5013637;28;20409;-63
2022/03/13 12:20:46;;;;;;;14.00;10.93;;;16.20;47.20;;;;;;5013532;28;20407;-63
2022/03/13 12:23:33;;;;;;;9.70;7.20;;;16.30;47.10;;;;;;5013192;28;20837;-63
2022/03/13 12:26:26;;;;;;;8.73;7.57;;;16.30;47.10;;;;;;5012270;28;20441;-64
2022/03/13 12:28:56;;;;;;;10.70;8.30;;;16.30;47.00;;;;;;5021229;28;20930;-64
2022/03/13 12:31:22;;;;;;;15.13;9.77;;;16.40;47.20;;;;;;5033365;28;20924;-64
2022/03/13 12:33:50;;;;;;;11.00;8.70;;;16.30;47.60;;;;;;5032897;28;20401;-64
2022/03/13 12:36:17;;;;;;;12.23;8.90;;;16.30;46.90;;;;;;5032851;28;20417;-65
2022/03/13 12:38:43;;;;;;;12.47;9.63;;;16.30;46.90;;;;;;5033170;28;20458;-61
2022/03/13 12:41:11;;;;;;;11.60;8.60;;;16.30;47.10;;;;;;5033212;28;20423;-63
2022/03/13 12:44:04;;;;;;;15.60;8.53;;;16.40;47.10;;;;;;5023018;28;20420;-63
2022/03/13 12:46:32;;;;;;;11.93;9.23;;;16.30;47.80;;;;;;5013126;28;20516;-62
2022/03/13 12:49:00;;;;;;;8.80;7.27;;;16.30;47.30;;;;;;5013527;28;20464;-63
2022/03/13 12:51:41;;;;;;;14.63;9.47;;;16.40;47.30;;;;;;5013428;28;20417;-64
2022/03/13 12:54:14;;;;;;;13.33;8.30;;;16.40;47.40;;;;;;5012509;28;20425;-64